Time;durP1;ratioP1;P1;durP2;ratioP2;P2;SDS_P1;SDS_P2;PMS_P1;PMS_P2;Temp;Humidity;BMP_temperature;BMP_pressure;BME280_temperature;BME280_humidity;BME280_pressure;Samples;Min_cycle;Max_cycle;Signal;HPM_P1;HPM_P2
2021/10/04 00:01:42;;;;;;;26.33;15.68;;;282.00;2278.40;;;;;;4912415;29;20075;-89
2021/10/04 00:05:25;;;;;;;24.20;15.82;;;281.90;2278.40;;;;;;4897236;29;20544;-88
2021/10/04 00:09:16;;;;;;;24.70;16.90;;;281.70;2278.40;;;;;;4883848;29;20040;-90
2021/10/04 00:12:10;;;;;;;30.20;15.82;;;282.00;2278.40;;;;;;4861974;29;20554;-89
2021/10/04 00:15:16;;;;;;;22.75;15.65;;;281.70;2278.40;;;;;;4848319;29;20095;-89
2021/10/04 00:18:39;;;;;;;21.65;15.80;;;281.70;2278.40;;;;;;4859984;29;20037;-90
2021/10/04 00:21:56;;;;;;;25.15;15.40;;;281.90;2278.40;;;;;;4879969;29;20033;-88
2021/10/04 00:29:00;;;;;;;29.63;18.15;;;281.70;2278.40;;;;;;4872590;29;20154;-88
2021/10/04 00:35:51;;;;;;;28.90;17.10;;;256.90;2252.80;;;;;;4861646;29;20199;-89
2021/10/04 00:39:07;;;;;;;22.90;15.82;;;256.80;2252.80;;;;;;4848821;29;20074;-89
2021/10/04 00:42:26;;;;;;;19.30;14.10;;;256.60;2252.80;;;;;;4832313;29;20038;-88
2021/10/04 00:46:00;;;;;;;25.73;16.42;;;256.90;2252.80;;;;;;4852628;29;20033;-89
2021/10/04 00:49:09;;;;;;;23.45;16.25;;;256.70;2252.80;;;;;;4822054;29;20933;-88
2021/10/04 00:53:01;;;;;;;28.65;17.08;;;256.30;2252.80;;;;;;4806448;29;20046;-89
2021/10/04 01:03:43;;;;;;;27.67;15.55;;;256.50;2252.80;;;;;;4879045;29;20059;-88
2021/10/04 01:07:17;;;;;;;25.23;15.95;;;256.60;2252.80;;;;;;4875247;29;20085;-85
2021/10/04 01:09:50;;;;;;;26.38;18.58;;;256.30;2252.80;;;;;;4877498;29;20045;-85
2021/10/04 01:14:00;;;;;;;;;;;;;;;;;;;;;
2021/10/04 01:16:49;;;;;;;27.23;16.23;;;281.70;2278.40;;;;;;4884591;29;20091;-80
2021/10/04 01:20:24;;;;;;;;;;;;;;;;;;;;;
2021/10/04 01:23:12;;;;;;;26.33;17.75;;;256.90;2252.80;;;;;;4866032;29;20040;-87
2021/10/04 01:26:58;;;;;;;28.55;18.33;;;281.60;2278.40;;;;;;4908421;28;20015;-88
2021/10/04 01:29:56;;;;;;;31.95;18.05;;;281.70;2278.40;;;;;;4891019;29;20040;-87
2021/10/04 01:32:54;;;;;;;26.58;17.33;;;256.90;2252.80;;;;;;4930586;28;20124;-87
2021/10/04 01:35:54;;;;;;;30.55;17.17;;;256.90;2252.80;;;;;;4995101;28;20030;-87
2021/10/04 01:39:13;;;;;;;26.98;17.95;;;256.90;2252.80;;;;;;4994739;28;20065;-87
2021/10/04 01:42:22;;;;;;;34.60;19.30;;;281.60;2278.40;;;;;;4980522;28;20026;-87
2021/10/04 01:45:13;;;;;;;28.27;18.08;;;281.60;2278.40;;;;;;4990016;28;20474;-87
2021/10/04 01:48:03;;;;;;;27.30;17.55;;;281.70;2278.40;;;;;;4993818;28;20434;-87
2021/10/04 01:51:16;;;;;;;25.75;18.00;;;281.70;2278.40;;;;;;4983812;28;20042;-87
2021/10/04 01:54:48;;;;;;;25.75;17.27;;;281.60;2278.40;;;;;;4994673;28;20031;-87
2021/10/04 01:58:17;;;;;;;27.35;18.60;;;256.40;2252.80;;;;;;4981900;28;20486;-87
2021/10/04 02:01:15;;;;;;;28.15;16.67;;;256.60;2252.80;;;;;;4989653;28;20121;-87
2021/10/04 02:04:25;;;;;;;28.88;17.10;;;256.20;2252.80;;;;;;4975386;28;20053;-87
2021/10/04 02:07:40;;;;;;;31.27;17.20;;;256.30;2252.80;;;;;;4993372;28;20434;-88
2021/10/04 02:11:17;;;;;;;28.13;17.98;;;256.10;2252.80;;;;;;4986237;28;20034;-87
2021/10/04 02:14:31;;;;;;;26.48;16.40;;;231.30;2252.80;;;;;;4906421;29;20144;-86
2021/10/04 02:17:50;;;;;;;30.33;16.77;;;256.10;2252.80;;;;;;4953576;28;20427;-88
2021/10/04 02:21:05;;;;;;;33.47;15.93;;;256.20;2252.80;;;;;;4953987;29;20078;-87
2021/10/04 02:24:19;;;;;;;25.90;16.67;;;256.30;2252.80;;;;;;4935270;29;20028;-88
2021/10/04 02:27:08;;;;;;;26.15;16.38;;;256.40;2252.80;;;;;;4903883;29;20039;-87
2021/10/04 02:30:01;;;;;;;24.88;17.13;;;256.50;2252.80;;;;;;4941942;28;20361;-87
2021/10/04 02:33:11;;;;;;;27.50;17.45;;;256.50;2252.80;;;;;;4949718;29;20530;-87
2021/10/04 02:36:22;;;;;;;29.88;19.02;;;256.30;2252.80;;;;;;4957881;29;20416;-87
2021/10/04 02:39:45;;;;;;;28.35;17.33;;;256.10;2252.80;;;;;;4989131;28;20038;-87
2021/10/04 02:43:11;;;;;;;29.02;17.80;;;231.10;2252.80;;;;;;4919745;29;20028;-87
2021/10/04 02:46:21;;;;;;;30.23;17.85;;;230.70;2252.80;;;;;;4919558;29;20114;-87
2021/10/04 02:49:10;;;;;;;24.63;15.55;;;230.80;2252.80;;;;;;4904463;29;20054;-86
2021/10/04 02:54:58;;;;;;;25.67;15.63;;;230.70;2252.80;;;;;;4919969;29;20152;-87
2021/10/04 02:58:03;;;;;;;23.77;15.73;;;230.90;2252.80;;;;;;4902816;29;20036;-86
2021/10/04 03:01:47;;;;;;;24.92;16.40;;;230.90;2252.80;;;;;;4833414;29;20042;-87
2021/10/04 03:05:11;;;;;;;22.13;16.00;;;230.80;2252.80;;;;;;4839259;29;20060;-88
2021/10/04 03:08:13;;;;;;;23.42;14.38;;;230.80;2252.80;;;;;;4830150;29;20042;-87
2021/10/04 03:11:05;;;;;;;21.60;14.60;;;230.60;2252.80;;;;;;4845627;29;20045;-87
2021/10/04 03:14:14;;;;;;;24.45;15.75;;;230.80;2252.80;;;;;;4854496;29;20049;-87
2021/10/04 03:17:18;;;;;;;19.95;15.60;;;230.60;2252.80;;;;;;4897242;29;20035;-87
2021/10/04 03:20:01;;;;;;;25.20;16.35;;;230.60;2252.80;;;;;;4958004;29;20032;-87
2021/10/04 03:22:43;;;;;;;27.65;16.52;;;230.90;2252.80;;;;;;4954706;28;20464;-87
2021/10/04 03:25:50;;;;;;;26.10;16.67;;;230.70;2252.80;;;;;;4916465;29;20084;-86
2021/10/04 03:28:18;;;;;;;25.13;15.27;;;205.70;2252.80;;;;;;4920814;29;20039;-87
2021/10/04 03:30:50;;;;;;;23.77;15.63;;;230.40;2252.80;;;;;;4936496;29;20399;-87
2021/10/04 03:33:29;;;;;;;23.77;16.40;;;230.50;2252.80;;;;;;4955883;29;20023;-86
2021/10/04 03:36:00;;;;;;;25.00;16.63;;;205.70;2252.80;;;;;;4928525;29;20058;-87
2021/10/04 03:38:56;;;;;;;29.92;15.60;;;205.70;2252.80;;;;;;4956839;29;20152;-88
2021/10/04 03:41:45;;;;;;;25.15;17.25;;;230.60;2252.80;;;;;;4915855;29;20034;-87
2021/10/04 03:44:16;;;;;;;28.13;16.75;;;230.60;2252.80;;;;;;4941091;29;20031;-87
2021/10/04 03:47:05;;;;;;;26.70;16.38;;;230.60;2252.80;;;;;;4925549;29;20047;-86
2021/10/04 03:49:43;;;;;;;24.73;16.02;;;230.50;2252.80;;;;;;4941719;29;20565;-89
2021/10/04 03:52:47;;;;;;;28.10;18.67;;;230.70;2252.80;;;;;;4952421;29;20023;-87
2021/10/04 03:55:37;;;;;;;24.65;17.63;;;230.40;2252.80;;;;;;4961171;28;20074;-87
2021/10/04 03:58:40;;;;;;;26.58;16.95;;;230.50;2252.80;;;;;;4996196;28;20077;-86
2021/10/04 04:01:43;;;;;;;23.95;15.68;;;230.60;2252.80;;;;;;4980180;28;20030;-87
2021/10/04 04:08:00;;;;;;;30.70;16.80;;;230.70;2252.80;;;;;;4996099;28;20413;-88
2021/10/04 04:10:58;;;;;;;25.88;16.30;;;230.80;2252.80;;;;;;4996054;28;20541;-87
2021/10/04 04:14:02;;;;;;;26.00;17.05;;;230.80;2252.80;;;;;;4967461;28;20030;-87
2021/10/04 04:17:10;;;;;;;30.73;17.23;;;230.50;2252.80;;;;;;4979647;28;20027;-88
2021/10/04 04:20:15;;;;;;;33.30;18.02;;;205.70;2252.80;;;;;;4993563;28;20042;-87
2021/10/04 04:22:56;;;;;;;31.80;17.80;;;205.50;2252.80;;;;;;4954719;28;20486;-87
2021/10/04 04:25:51;;;;;;;31.48;20.23;;;205.70;2252.80;;;;;;4979921;28;20035;-86
2021/10/04 04:28:57;;;;;;;30.48;21.23;;;205.70;2252.80;;;;;;4982435;28;20114;-86
2021/10/04 04:32:08;;;;;;;28.92;18.73;;;205.70;2252.80;;;;;;4980019;28;20148;-87
2021/10/04 04:34:47;;;;;;;30.23;18.63;;;205.60;2252.80;;;;;;4998025;28;20026;-87
2021/10/04 04:37:40;;;;;;;28.77;16.92;;;205.60;2252.80;;;;;;4994554;28;20062;-87
2021/10/04 04:40:38;;;;;;;28.85;17.25;;;230.40;2252.80;;;;;;4981756;28;20033;-88
2021/10/04 04:43:51;;;;;;;30.65;16.42;;;230.50;2252.80;;;;;;4996701;28;20038;-88
2021/10/04 04:46:37;;;;;;;28.35;18.23;;;230.70;2252.80;;;;;;4958861;28;20542;-87
2021/10/04 04:49:17;;;;;;;32.85;20.35;;;230.70;2252.80;;;;;;4958779;28;20046;-88
2021/10/04 04:52:04;;;;;;;32.83;19.38;;;230.80;2252.80;;;;;;4975034;28;20510;-87
2021/10/04 05:00:46;;;;;;;40.05;27.17;;;230.40;2252.80;;;;;;4975246;28;20073;-87
2021/10/04 05:03:56;;;;;;;61.10;44.45;;;230.50;2252.80;;;;;;4959049;28;20035;-86
2021/10/04 05:13:15;;;;;;;30.65;18.27;;;230.50;2252.80;;;;;;4994341;28;20125;-88
2021/10/04 05:16:05;;;;;;;51.78;29.23;;;230.50;2252.80;;;;;;4992281;28;20483;-87
2021/10/04 05:19:13;;;;;;;66.85;43.33;;;230.50;2252.80;;;;;;4994214;28;20177;-88
2021/10/04 05:25:06;;;;;;;;;;;205.60;2252.80;;;;;;4990509;28;20033;-88
2021/10/04 05:28:12;;;;;;;37.15;20.13;;;205.50;2252.80;;;;;;4992470;28;20360;-87
2021/10/04 05:31:08;;;;;;;34.80;22.85;;;205.70;2252.80;;;;;;4994082;28;20038;-87
2021/10/04 05:37:37;;;;;;;35.33;22.27;;;205.50;2252.80;;;;;;4992469;28;20033;-87
2021/10/04 05:40:14;;;;;;;33.00;21.95;;;205.50;2252.80;;;;;;4994611;28;20031;-88
2021/10/04 05:42:51;;;;;;;30.48;21.75;;;205.40;2252.80;;;;;;4978580;28;20034;-87
2021/10/04 05:45:46;;;;;;;27.67;20.33;;;205.40;2252.80;;;;;;4977504;28;20038;-88
2021/10/04 05:48:23;;;;;;;37.83;20.83;;;205.40;2252.80;;;;;;4976373;28;20030;-88
2021/10/04 05:51:02;;;;;;;36.47;25.95;;;205.60;2252.80;;;;;;5009477;28;20061;-87
2021/10/04 05:54:03;;;;;;;33.15;19.73;;;205.70;2252.80;;;;;;4994138;28;20037;-87
2021/10/04 05:56:56;;;;;;;29.15;20.95;;;230.60;2252.80;;;;;;4996363;28;20054;-87
2021/10/04 05:59:31;;;;;;;35.08;22.58;;;230.80;2252.80;;;;;;4994473;28;20054;-87
2021/10/04 06:02:03;;;;;;;36.72;22.65;;;230.70;2252.80;;;;;;4995334;28;20061;-88
2021/10/04 06:04:52;;;;;;;39.85;22.50;;;230.70;2252.80;;;;;;4979498;28;20061;-83
2021/10/04 06:07:21;;;;;;;36.05;22.27;;;230.80;2252.80;;;;;;5009633;28;20046;-85
2021/10/04 06:09:48;;;;;;;35.97;21.23;;;230.50;2252.80;;;;;;4994720;28;20401;-85
2021/10/04 06:12:38;;;;;;;35.92;21.85;;;230.60;2252.80;;;;;;4994485;28;20043;-85
2021/10/04 06:15:27;;;;;;;38.42;25.65;;;230.80;2252.80;;;;;;4995623;28;20533;-86
2021/10/04 06:18:01;;;;;;;33.63;22.15;;;230.90;2252.80;;;;;;5010483;28;20092;-85
2021/10/04 06:20:52;;;;;;;31.08;21.33;;;231.10;2252.80;;;;;;5001225;28;20041;-84
2021/10/04 06:23:24;;;;;;;34.10;20.45;;;231.30;2252.80;;;;;;5010299;28;20113;-86
2021/10/04 06:25:51;;;;;;;26.38;19.13;;;256.10;2252.80;;;;;;4987001;28;20045;-85
2021/10/04 06:28:24;;;;;;;28.40;19.30;;;256.20;2252.80;;;;;;5006682;28;20483;-84
2021/10/04 06:30:56;;;;;;;35.88;20.33;;;256.20;2252.80;;;;;;4977339;28;20544;-85
2021/10/04 06:33:41;;;;;;;26.77;18.70;;;256.30;2252.80;;;;;;4991838;28;20042;-85
2021/10/04 06:36:31;;;;;;;29.30;23.77;;;256.40;2252.80;;;;;;4994391;28;20041;-85
2021/10/04 06:39:20;;;;;;;25.92;18.73;;;256.50;2252.80;;;;;;5008952;28;20114;-85
2021/10/04 06:42:08;;;;;;;31.15;19.98;;;256.50;2252.80;;;;;;4972529;28;20410;-85
2021/10/04 06:45:32;;;;;;;24.05;18.02;;;256.70;2252.80;;;;;;4972732;28;20042;-86
2021/10/04 06:48:22;;;;;;;28.13;19.08;;;256.50;2252.80;;;;;;4972309;28;20518;-85
2021/10/04 06:51:11;;;;;;;24.63;19.23;;;256.60;2252.80;;;;;;4970529;28;20059;-86
2021/10/04 06:53:58;;;;;;;30.92;20.73;;;256.80;2252.80;;;;;;4972701;28;20037;-85
2021/10/04 06:56:25;;;;;;;27.00;18.77;;;281.60;2278.40;;;;;;4956342;28;20418;-84
2021/10/04 06:59:10;;;;;;;32.40;22.45;;;281.70;2278.40;;;;;;4942596;28;20043;-84
2021/10/04 07:01:39;;;;;;;27.98;19.50;;;281.90;2278.40;;;;;;4956159;28;20618;-84
2021/10/04 07:04:56;;;;;;;25.27;18.13;;;282.00;2278.40;;;;;;4950591;28;20041;-85
2021/10/04 07:07:29;;;;;;;26.75;17.40;;;282.00;2278.40;;;;;;4985376;28;20073;-84
2021/10/04 07:09:56;;;;;;;26.25;18.73;;;282.30;2278.40;;;;;;4974110;28;20042;-83
2021/10/04 07:12:26;;;;;;;24.27;17.75;;;282.40;2278.40;;;;;;4991028;28;20402;-84
2021/10/04 07:15:50;;;;;;;28.95;19.35;;;282.40;2278.40;;;;;;4993903;28;20418;-85
2021/10/04 07:18:23;;;;;;;24.45;17.33;;;307.20;2304.00;;;;;;4997022;28;20049;-84
2021/10/04 07:20:51;;;;;;;26.75;18.42;;;307.30;2304.00;;;;;;5012855;28;20054;-84
2021/10/04 07:23:25;;;;;;;23.73;17.67;;;307.50;2304.00;;;;;;4996430;28;20052;-86
2021/10/04 07:26:04;;;;;;;27.30;18.42;;;307.60;2304.00;;;;;;4996928;28;20505;-84
2021/10/04 07:28:34;;;;;;;30.50;20.27;;;307.80;2304.00;;;;;;4996130;28;20034;-86
2021/10/04 07:31:17;;;;;;;29.90;17.45;;;307.90;2304.00;;;;;;4994546;28;20035;-86
2021/10/04 07:33:46;;;;;;;28.90;17.77;;;308.00;2304.00;;;;;;4997434;28;20030;-86
2021/10/04 07:36:13;;;;;;;25.98;16.35;;;308.10;2304.00;;;;;;5012183;28;20153;-84
2021/10/04 07:38:43;;;;;;;20.80;15.80;;;332.90;2329.60;;;;;;4995700;28;20056;-85
2021/10/04 07:41:09;;;;;;;22.17;16.10;;;332.90;2329.60;;;;;;4996040;28;20073;-85
2021/10/04 07:43:59;;;;;;;25.05;15.95;;;333.20;2329.60;;;;;;5012487;28;20436;-86
2021/10/04 07:46:45;;;;;;;25.67;16.80;;;333.30;2329.60;;;;;;4994693;28;20117;-85
2021/10/04 07:49:12;;;;;;;27.95;17.38;;;333.50;2329.60;;;;;;5012239;28;20152;-84
2021/10/04 07:52:26;;;;;;;;;;;;;;;;;;;;;
2021/10/04 07:54:59;;;;;;;22.92;15.40;;;333.70;2329.60;;;;;;4994822;28;20066;-87
2021/10/04 07:57:27;;;;;;;20.35;14.23;;;333.70;2329.60;;;;;;5012072;28;20478;-87
2021/10/04 07:59:54;;;;;;;17.25;14.15;;;333.70;2329.60;;;;;;5011515;28;20046;-85
2021/10/04 08:02:22;;;;;;;21.20;16.00;;;358.40;2329.60;;;;;;4995966;28;20094;-84
2021/10/04 08:04:49;;;;;;;20.63;14.65;;;358.50;2329.60;;;;;;5011970;28;20023;-85
2021/10/04 08:07:23;;;;;;;18.10;12.75;;;358.70;2329.60;;;;;;4996323;28;20476;-86
2021/10/04 08:09:54;;;;;;;18.48;13.55;;;358.80;2329.60;;;;;;4978671;28;20034;-85
2021/10/04 08:12:23;;;;;;;21.83;13.77;;;358.90;2329.60;;;;;;4979494;28;20030;-88
2021/10/04 08:14:50;;;;;;;20.45;13.85;;;359.00;2329.60;;;;;;4979148;28;20130;-86
2021/10/04 08:17:16;;;;;;;20.15;12.65;;;359.10;2329.60;;;;;;4979329;28;20041;-86
2021/10/04 08:19:45;;;;;;;19.27;13.00;;;358.80;2329.60;;;;;;4979429;28;20058;-85
2021/10/04 08:22:11;;;;;;;14.98;12.15;;;359.30;2329.60;;;;;;4979130;28;20537;-86
2021/10/04 08:24:43;;;;;;;20.13;14.80;;;384.10;2329.60;;;;;;4978917;28;20030;-87
2021/10/04 08:27:09;;;;;;;25.50;14.63;;;384.20;2329.60;;;;;;4978344;28;20482;-87
2021/10/04 08:29:36;;;;;;;20.23;14.13;;;384.30;2329.60;;;;;;4978777;28;20033;-86
2021/10/04 08:32:03;;;;;;;17.48;13.73;;;384.30;2329.60;;;;;;4995169;28;20058;-86
2021/10/04 08:34:29;;;;;;;17.98;14.52;;;384.40;2329.60;;;;;;4978671;28;20096;-83
2021/10/04 08:36:55;;;;;;;19.58;13.38;;;384.40;2329.60;;;;;;4979109;28;20035;-85
2021/10/04 08:39:21;;;;;;;19.27;13.90;;;384.60;2329.60;;;;;;4979019;28;20479;-87
2021/10/04 08:41:51;;;;;;;18.85;13.43;;;384.70;2329.60;;;;;;4995875;28;20076;-85
2021/10/04 08:44:17;;;;;;;22.35;16.27;;;384.80;2329.60;;;;;;4978674;28;20026;-85
2021/10/04 08:46:45;;;;;;;20.02;14.65;;;409.60;2355.20;;;;;;4978773;28;20029;-85
2021/10/04 08:49:17;;;;;;;25.08;15.52;;;409.70;2355.20;;;;;;4978378;28;20033;-88
2021/10/04 08:51:45;;;;;;;18.57;14.30;;;409.70;2355.20;;;;;;4978950;28;20030;-86
2021/10/04 08:54:11;;;;;;;27.80;19.33;;;410.00;2355.20;;;;;;4979042;28;20359;-84
2021/10/04 08:56:39;;;;;;;16.42;12.45;;;410.30;2355.20;;;;;;4978609;28;20042;-85
2021/10/04 08:59:05;;;;;;;22.35;13.80;;;410.30;2355.20;;;;;;4978707;28;20034;-84
2021/10/04 09:01:32;;;;;;;25.23;15.70;;;410.20;2355.20;;;;;;4978056;28;20550;-85
2021/10/04 09:04:01;;;;;;;19.95;15.38;;;410.30;2355.20;;;;;;4994316;28;20157;-82
2021/10/04 09:06:33;;;;;;;19.88;12.95;;;410.50;2355.20;;;;;;4994128;28;20042;-80
2021/10/04 09:09:05;;;;;;;17.50;13.98;;;435.50;2355.20;;;;;;4994086;28;20033;-79
2021/10/04 09:11:37;;;;;;;16.58;10.93;;;435.60;2355.20;;;;;;4994416;28;20125;-83
2021/10/04 09:14:26;;;;;;;18.77;13.02;;;435.80;2355.20;;;;;;4994608;28;20066;-82
2021/10/04 09:16:54;;;;;;;18.95;15.35;;;435.90;2355.20;;;;;;4966957;28;20092;-81
2021/10/04 09:19:30;;;;;;;18.50;15.32;;;460.80;2380.80;;;;;;4993395;28;20489;-80
2021/10/04 09:22:18;;;;;;;16.05;11.15;;;460.80;2380.80;;;;;;4995286;28;20033;-78
2021/10/04 09:25:02;;;;;;;20.52;12.77;;;460.80;2380.80;;;;;;4994112;28;20085;-78
2021/10/04 09:27:33;;;;;;;16.23;10.88;;;460.80;2380.80;;;;;;4994979;28;20427;-77
2021/10/04 09:30:20;;;;;;;22.58;12.70;;;460.90;2380.80;;;;;;4993412;28;20030;-81
2021/10/04 09:32:49;;;;;;;16.88;10.65;;;461.10;2380.80;;;;;;4992982;28;20409;-80
2021/10/04 09:35:27;;;;;;;17.75;11.88;;;461.20;2380.80;;;;;;4994996;28;20379;-80
2021/10/04 09:37:59;;;;;;;13.50;10.57;;;461.40;2380.80;;;;;;4995009;28;20026;-78
2021/10/04 09:40:40;;;;;;;14.63;10.73;;;461.50;2380.80;;;;;;4994153;28;20497;-79
2021/10/04 09:43:09;;;;;;;17.05;11.68;;;461.50;2380.80;;;;;;4993777;28;20026;-78
2021/10/04 09:45:35;;;;;;;14.07;8.68;;;461.50;2380.80;;;;;;4993451;28;20029;-79
2021/10/04 09:48:12;;;;;;;15.20;9.52;;;461.70;2380.80;;;;;;4993948;28;20026;-80
2021/10/04 09:50:40;;;;;;;13.50;9.27;;;486.40;2380.80;;;;;;4994778;28;20084;-79
2021/10/04 09:53:10;;;;;;;13.82;10.75;;;486.60;2380.80;;;;;;4994823;28;20077;-78
2021/10/04 09:55:55;;;;;;;13.85;10.88;;;486.90;2380.80;;;;;;4978571;28;20045;-79
2021/10/04 09:58:32;;;;;;;15.00;12.60;;;487.10;2380.80;;;;;;4993124;28;20545;-78
2021/10/04 10:01:01;;;;;;;18.85;11.27;;;487.10;2380.80;;;;;;4993634;28;20045;-80
2021/10/04 10:03:30;;;;;;;14.25;10.32;;;487.00;2380.80;;;;;;4993738;28;20053;-78
2021/10/04 10:05:58;;;;;;;12.07;9.25;;;486.90;2380.80;;;;;;4993554;28;20549;-79
2021/10/04 10:08:26;;;;;;;16.15;12.35;;;486.80;2380.80;;;;;;4977654;28;20390;-80
2021/10/04 10:10:54;;;;;;;13.57;10.40;;;486.70;2380.80;;;;;;4993440;28;20525;-79
2021/10/04 10:13:22;;;;;;;14.40;10.05;;;486.80;2380.80;;;;;;4993445;28;20018;-78
2021/10/04 10:16:06;;;;;;;12.80;9.95;;;487.10;2380.80;;;;;;4992752;28;20029;-80
2021/10/04 10:18:40;;;;;;;14.90;10.90;;;487.10;2380.80;;;;;;4993661;28;20034;-80
2021/10/04 10:21:08;;;;;;;12.77;8.73;;;487.20;2380.80;;;;;;4994036;28;20032;-75
2021/10/04 10:23:52;;;;;;;19.27;10.45;;;487.20;2380.80;;;;;;4996319;28;20057;-79
2021/10/04 10:26:43;;;;;;;19.00;9.13;;;512.10;2380.80;;;;;;5011795;28;20569;-76
2021/10/04 10:29:09;;;;;;;11.43;8.70;;;512.50;2380.80;;;;;;5016016;28;20030;-78
2021/10/04 10:31:55;;;;;;;12.82;9.40;;;512.50;2380.80;;;;;;4998925;28;20022;-77
2021/10/04 10:34:33;;;;;;;24.63;10.32;;;512.80;2380.80;;;;;;4982121;28;20105;-77
2021/10/04 10:37:29;;;;;;;15.23;10.15;;;512.90;2380.80;;;;;;4996810;28;20037;-75
2021/10/04 10:40:10;;;;;;;14.10;10.15;;;537.60;2406.40;;;;;;4983801;28;20050;-75
2021/10/04 10:42:44;;;;;;;23.33;16.13;;;538.00;2406.40;;;;;;5013618;28;20006;-75
2021/10/04 10:45:15;;;;;;;13.52;7.80;;;538.10;2406.40;;;;;;5009149;28;20057;-76
2021/10/04 10:47:40;;;;;;;11.18;7.78;;;538.00;2406.40;;;;;;5027725;28;20033;-76
2021/10/04 10:50:14;;;;;;;13.43;9.18;;;538.20;2406.40;;;;;;4994222;28;20034;-80
2021/10/04 10:52:45;;;;;;;12.90;8.73;;;538.40;2406.40;;;;;;4995581;28;20026;-78
2021/10/04 10:55:20;;;;;;;11.52;7.70;;;563.20;2432.00;;;;;;4998360;28;20080;-78
2021/10/04 10:57:49;;;;;;;12.73;7.35;;;563.30;2432.00;;;;;;4980960;28;20089;-77
2021/10/04 11:00:21;;;;;;;10.48;8.15;;;563.60;2432.00;;;;;;4980296;28;20038;-78
2021/10/04 11:03:22;;;;;;;16.90;10.02;;;563.80;2432.00;;;;;;4979505;28;20027;-79
2021/10/04 11:06:02;;;;;;;10.98;9.20;;;564.10;2406.40;;;;;;4978937;28;20459;-80
2021/10/04 11:08:28;;;;;;;18.00;9.80;;;588.80;2406.40;;;;;;4959062;29;20043;-77
2021/10/04 11:10:57;;;;;;;10.07;7.85;;;588.90;2380.80;;;;;;4958978;29;20399;-76
2021/10/04 11:13:29;;;;;;;13.82;7.85;;;589.20;2329.60;;;;;;4942068;29;20604;-77
2021/10/04 11:16:06;;;;;;;16.45;8.68;;;589.60;2329.60;;;;;;4941865;29;20497;-79
2021/10/04 11:18:40;;;;;;;14.63;9.48;;;614.50;2227.20;;;;;;4959605;29;20063;-79
2021/10/04 11:21:09;;;;;;;12.85;7.22;;;614.70;2201.60;;;;;;4958173;28;20031;-76
2021/10/04 11:23:49;;;;;;;16.60;9.75;;;614.80;2150.40;;;;;;4957719;28;20027;-76
2021/10/04 11:26:20;;;;;;;16.27;9.00;;;615.10;2124.80;;;;;;4957576;28;20159;-77
2021/10/04 11:28:49;;;;;;;10.70;7.72;;;615.20;2099.20;;;;;;4957316;28;20027;-78
2021/10/04 11:31:16;;;;;;;8.48;7.57;;;640.10;2048.00;;;;;;4957568;28;20046;-75
2021/10/04 11:33:56;;;;;;;11.55;7.57;;;640.40;2048.00;;;;;;4957557;28;20031;-77
2021/10/04 11:36:25;;;;;;;9.77;7.28;;;640.50;2048.00;;;;;;4941268;29;20074;-76
2021/10/04 11:38:54;;;;;;;10.88;7.22;;;640.70;1996.80;;;;;;4957381;29;20395;-77
2021/10/04 11:41:25;;;;;;;11.23;7.50;;;640.90;1996.80;;;;;;4958099;28;20031;-79
2021/10/04 11:44:01;;;;;;;14.98;7.72;;;665.90;1996.80;;;;;;4957411;28;20448;-78
2021/10/04 11:46:30;;;;;;;10.18;7.13;;;666.10;1920.00;;;;;;4976589;28;20121;-77
2021/10/04 11:49:03;;;;;;;14.27;9.27;;;666.40;1920.00;;;;;;4976268;28;20490;-79
2021/10/04 11:51:30;;;;;;;11.65;8.32;;;691.20;1894.40;;;;;;4976073;28;20146;-78
2021/10/04 11:53:57;;;;;;;10.15;7.13;;;691.40;1894.40;;;;;;4971251;28;20023;-77
2021/10/04 11:56:23;;;;;;;12.45;6.38;;;691.30;1843.20;;;;;;4975784;28;20110;-78
2021/10/04 11:58:54;;;;;;;11.98;7.47;;;691.40;1843.20;;;;;;4957194;28;20479;-79
2021/10/04 12:01:32;;;;;;;13.95;8.48;;;691.60;1843.20;;;;;;4974236;28;20532;-77
2021/10/04 12:04:00;;;;;;;9.30;8.10;;;691.80;1817.60;;;;;;4975630;28;20026;-78
2021/10/04 12:06:31;;;;;;;12.10;9.35;;;691.90;1792.00;;;;;;4979438;28;20050;-80
2021/10/04 12:08:56;;;;;;;12.52;9.45;;;692.10;1792.00;;;;;;4994702;28;20034;-79
2021/10/04 12:11:23;;;;;;;11.77;9.50;;;716.80;1792.00;;;;;;4993916;28;20026;-79
2021/10/04 12:13:50;;;;;;;15.65;11.02;;;692.10;1740.80;;;;;;4994404;28;20041;-79
2021/10/04 12:16:18;;;;;;;13.35;11.32;;;717.20;1766.40;;;;;;4994793;28;20054;-77
2021/10/04 12:18:46;;;;;;;16.05;10.90;;;717.00;1766.40;;;;;;4994148;28;20076;-78
2021/10/04 12:21:22;;;;;;;15.65;10.07;;;717.20;1766.40;;;;;;4995695;28;20105;-79
2021/10/04 12:24:22;;;;;;;14.05;11.68;;;716.90;1740.80;;;;;;4993865;28;20030;-77
2021/10/04 12:27:11;;;;;;;10.95;9.27;;;717.10;1740.80;;;;;;4998120;28;20026;-79
2021/10/04 12:29:46;;;;;;;10.93;8.18;;;717.30;1715.20;;;;;;4982231;28;20042;-79
2021/10/04 12:32:27;;;;;;;12.18;9.70;;;717.10;1715.20;;;;;;4993759;28;20061;-77
2021/10/04 12:35:18;;;;;;;18.35;10.60;;;717.10;1689.60;;;;;;4993758;28;20440;-79
2021/10/04 12:38:13;;;;;;;13.88;9.93;;;717.30;1740.80;;;;;;4994143;28;20066;-78
2021/10/04 12:40:49;;;;;;;14.70;9.23;;;717.10;1689.60;;;;;;4991995;28;20043;-77
2021/10/04 12:43:23;;;;;;;13.13;9.73;;;717.50;1689.60;;;;;;4977153;28;20379;-80
2021/10/04 12:46:15;;;;;;;13.15;11.23;;;717.60;1715.20;;;;;;4994686;28;20038;-78
2021/10/04 12:48:46;;;;;;;12.50;10.07;;;742.40;1740.80;;;;;;4977167;28;20058;-79
2021/10/04 12:51:14;;;;;;;15.55;10.90;;;742.40;1689.60;;;;;;4993930;28;20093;-80
2021/10/04 12:53:49;;;;;;;16.40;11.48;;;742.40;1689.60;;;;;;4994536;28;20138;-78
2021/10/04 12:56:21;;;;;;;21.90;13.23;;;742.40;1664.00;;;;;;4994750;28;20096;-79
2021/10/04 12:59:00;;;;;;;14.50;9.93;;;742.40;1689.60;;;;;;4994318;28;20470;-80
2021/10/04 13:01:25;;;;;;;11.93;9.38;;;742.40;1664.00;;;;;;4993533;28;20030;-79
2021/10/04 13:04:05;;;;;;;11.05;9.40;;;742.50;1689.60;;;;;;4994183;28;20030;-80
2021/10/04 13:06:34;;;;;;;12.30;10.45;;;742.40;1689.60;;;;;;4993576;28;20088;-78
2021/10/04 13:09:02;;;;;;;19.13;14.52;;;717.70;1664.00;;;;;;4993432;28;20034;-78
2021/10/04 13:11:28;;;;;;;12.73;11.00;;;742.50;1689.60;;;;;;4992920;28;20089;-78
2021/10/04 13:13:55;;;;;;;11.45;9.85;;;742.90;1664.00;;;;;;4992687;28;20129;-78
2021/10/04 13:16:22;;;;;;;13.38;11.25;;;742.50;1689.60;;;;;;4992483;28;20036;-77
2021/10/04 13:18:48;;;;;;;11.52;9.15;;;742.60;1664.00;;;;;;4992879;28;20038;-78
2021/10/04 13:21:14;;;;;;;21.92;9.65;;;742.80;1664.00;;;;;;4993289;28;20033;-81
2021/10/04 13:23:41;;;;;;;22.67;10.80;;;742.70;1638.40;;;;;;4994049;28;20029;-81
2021/10/04 13:26:10;;;;;;;21.90;10.73;;;742.70;1638.40;;;;;;4993753;28;20057;-82
2021/10/04 13:28:36;;;;;;;12.20;8.02;;;742.70;1638.40;;;;;;4992907;28;20034;-81
2021/10/04 13:31:14;;;;;;;15.20;10.90;;;742.60;1664.00;;;;;;4990781;28;20026;-81
2021/10/04 13:33:42;;;;;;;16.00;9.40;;;742.70;1664.00;;;;;;4992931;28;20383;-81
2021/10/04 13:36:08;;;;;;;16.15;9.38;;;742.70;1638.40;;;;;;4992728;28;20117;-81
2021/10/04 13:38:35;;;;;;;13.95;7.38;;;743.10;1638.40;;;;;;4992868;28;20652;-81
2021/10/04 13:41:03;;;;;;;15.23;8.88;;;742.40;1612.80;;;;;;4992929;28;20031;-79
2021/10/04 13:43:29;;;;;;;13.35;8.27;;;742.40;1638.40;;;;;;4992215;28;20026;-80
2021/10/04 13:45:57;;;;;;;14.88;9.95;;;742.60;1638.40;;;;;;4992375;28;20177;-79
2021/10/04 13:48:23;;;;;;;10.77;8.68;;;742.40;1664.00;;;;;;4992485;28;20041;-80
2021/10/04 13:50:53;;;;;;;11.60;8.32;;;742.50;1664.00;;;;;;4992607;28;20041;-79
2021/10/04 13:53:19;;;;;;;11.68;9.77;;;742.40;1664.00;;;;;;4992340;28;20462;-79
2021/10/04 13:55:45;;;;;;;14.38;8.95;;;717.50;1638.40;;;;;;4992336;28;20068;-80
2021/10/04 13:58:11;;;;;;;20.05;11.43;;;717.50;1664.00;;;;;;4996618;28;20413;-77
2021/10/04 14:00:37;;;;;;;12.98;10.25;;;717.50;1664.00;;;;;;5002297;28;20034;-81
2021/10/04 14:03:03;;;;;;;13.07;9.23;;;717.20;1638.40;;;;;;5000442;28;20413;-79
2021/10/04 14:05:29;;;;;;;18.15;12.50;;;717.20;1664.00;;;;;;4993030;28;20030;-81
2021/10/04 14:07:55;;;;;;;16.65;10.63;;;716.80;1664.00;;;;;;4991931;28;20050;-79
2021/10/04 14:10:23;;;;;;;13.65;9.95;;;691.90;1664.00;;;;;;4992693;28;20034;-80